This demonstration page uses our WeatherBlox Daily Observations layout. Learn more.

Left ArrowRight Arrow

Hourly Observations for May 29, 2017

Temp ( °F °C ) Dew Point ( °F °C ) Humidity (%) Winds ( mph kmh ) Pressure ( in mb ) Visibility ( mi km ) Precip ( " mm )
12:54 am 00:54 Clear 61 16.1 46 7.8 58 58 W 5 7 29.89 1012 10 16.0934 0 0
1:54 am 01:54 Clear 61 16.1 44 6.7 54 54 Calm 29.9 1013 10 16.0934 0 0
2:54 am 02:54 Clear 57 13.9 45 7.2 64 64 Calm 29.92 1013 10 16.0934 0 0
3:54 am 03:54 Clear 60 15.6 45 7.2 58 58 W 6 9 29.94 1014 10 16.0934 0 0
4:54 am 04:54 Clear 58 14.4 46 7.8 65 65 W 5 7 29.96 1014 10 16.0934 0 0
5:54 am 05:54 Clear 57 13.9 47 8.3 69 69 WNW 5 7 29.97 1015 10 16.0934 0 0
6:54 am 06:54 Mostly Cloudy 58 14.4 47 8.3 67 67 WNW 5 7 29.98 1015 10 16.0934 0 0
7:54 am 07:54 Partly Cloudy 60 15.6 49 9.4 67 67 NW 6 9 29.99 1016 10 16.0934 0 0
8:54 am 08:54 Sunny 65 18.3 51 10.6 61 61 WNW 7 11 29.98 1015 10 16.0934 0 0
9:54 am 09:54 Sunny 70 21.1 51 10.6 51 51 W 7 11 30 1016 10 16.0934 0 0
10:54 am 10:54 Sunny 73 22.8 45 7.2 37 37 NNW 10 17 30.01 1016 10 16.0934 0 0
11:54 am 11:54 Sunny 74 23.3 45 7.2 36 36 WNW 14 22 30.02 1017 10 16.0934 0 0
12:54 pm 12:54 Mostly Cloudy 73 22.8 44 6.7 35 35 NNW 14 22 30.03 1017 10 16.0934 0 0
1:54 pm 13:54 Mostly Cloudy 77 25 40 4.4 26 26 NNW 20 31 30.01 1016 10 16.0934 0 0
2:54 pm 14:54 Mostly Sunny 76 24.4 36 2.2 23 23 WNW 22 35 30.01 1016 10 16.0934 0 0
3:54 pm 15:54 Mostly Sunny 76 24.4 36 2.2 23 23 NNW 17 28 30.01 1016 10 16.0934 0 0
4:54 pm 16:54 Mostly Sunny 77 25 36 2.2 23 23 NNW 24 39 30 1016 10 16.0934 0 0
5:54 pm 17:54 Sunny 76 24.4 36 2.2 23 23 NW 20 31 30 1016 10 16.0934 0 0
6:54 pm 18:54 Sunny 74 23.3 33 0.6 22 22 NW 18 30 30 1016 10 16.0934 0 0
7:54 pm 19:54 Sunny 73 22.8 35 1.7 25 25 NW 12 19 30 1016 10 16.0934 0 0
8:54 pm 20:54 Clear 69 20.6 37 2.8 31 31 NNW 7 11 30.01 1016 10 16.0934 0 0
9:54 pm 21:54 Clear 59 15 41 5 51 51 N 5 7 30.03 1017 10 16.0934 0 0
10:54 pm 22:54 Clear 58 14.4 42 5.6 56 56 Calm 30.04 1017 10 16.0934 0 0
11:54 pm 23:54 Clear 57 13.9 42 5.6 58 58 Calm 30.04 1017 10 16.0934 0 0

Powered by AerisWeather